createdAt,value
2018-11-07T00:00:17.052Z,9.87
2018-11-07T00:02:47.411Z,9.87
2018-11-07T00:05:17.664Z,9.75
2018-11-07T00:07:46.085Z,9.30
2018-11-07T00:11:18.341Z,9.11
2018-11-07T00:13:47.744Z,9.20
2018-11-07T00:16:17.524Z,9.14
2018-11-07T00:18:48.906Z,9.32
2018-11-07T00:21:28.119Z,9.38
2018-11-07T00:23:57.190Z,9.38
2018-11-07T00:26:33.371Z,9.30
2018-11-07T00:29:21.736Z,9.26
2018-11-07T00:32:10.257Z,9.24
2018-11-07T00:34:53.577Z,9.09
2018-11-07T00:37:22.190Z,8.82
2018-11-07T00:39:51.257Z,8.88
2018-11-07T00:42:19.447Z,8.92
2018-11-07T00:44:47.524Z,9.07
2018-11-07T00:47:15.692Z,8.87
2018-11-07T00:49:43.813Z,8.62
2018-11-07T00:52:11.935Z,8.68
2018-11-07T00:54:40.095Z,8.64
2018-11-07T00:57:08.927Z,8.69
2018-11-07T00:59:37.200Z,8.73
2018-11-07T01:02:05.346Z,8.87
2018-11-07T01:04:33.500Z,8.79
2018-11-07T01:07:01.617Z,8.73
2018-11-07T01:09:29.775Z,8.76
2018-11-07T01:11:57.838Z,8.60
2018-11-07T01:14:25.960Z,8.50
2018-11-07T01:16:54.100Z,8.53
2018-11-07T01:19:22.244Z,8.44
2018-11-07T01:21:50.341Z,8.26
2018-11-07T01:24:18.578Z,7.93
2018-11-07T01:26:46.672Z,7.88
2018-11-07T01:29:14.799Z,7.66
2018-11-07T01:31:42.942Z,7.61
2018-11-07T01:34:11.090Z,7.70
2018-11-07T01:36:39.115Z,7.66
2018-11-07T01:39:08.481Z,7.53
2018-11-07T01:41:36.596Z,7.58
2018-11-07T01:44:04.740Z,7.58
2018-11-07T01:46:32.903Z,7.45
2018-11-07T01:49:01.023Z,7.55
2018-11-07T01:51:29.150Z,7.59
2018-11-07T01:53:57.288Z,7.57
2018-11-07T01:56:25.451Z,7.50
2018-11-07T01:58:53.564Z,7.55
2018-11-07T02:01:21.682Z,7.44
2018-11-07T02:03:49.816Z,7.39
2018-11-07T02:06:17.943Z,7.46
2018-11-07T02:08:46.060Z,7.56
2018-11-07T02:11:14.188Z,7.57
2018-11-07T02:13:42.401Z,7.72
2018-11-07T02:16:10.530Z,7.99
2018-11-07T02:18:38.734Z,7.96
2018-11-07T02:21:06.883Z,8.01
2018-11-07T02:23:34.984Z,8.30
2018-11-07T02:26:03.096Z,8.28
2018-11-07T02:28:31.216Z,8.04
2018-11-07T02:30:59.356Z,7.98
2018-11-07T02:33:27.477Z,7.90
2018-11-07T02:35:55.604Z,7.90
2018-11-07T02:38:23.709Z,8.25
2018-11-07T02:40:51.887Z,8.34
2018-11-07T02:43:19.996Z,8.41
2018-11-07T02:45:48.154Z,8.37
2018-11-07T02:48:16.263Z,8.34
2018-11-07T02:50:44.395Z,8.02
2018-11-07T02:53:12.504Z,8.13
2018-11-07T02:55:40.595Z,8.21
2018-11-07T02:58:08.688Z,8.53
2018-11-07T03:00:36.808Z,8.42
2018-11-07T03:03:04.969Z,8.11
2018-11-07T03:05:33.088Z,7.83
2018-11-07T03:08:01.197Z,7.55
2018-11-07T03:10:29.475Z,7.42
2018-11-07T03:12:57.615Z,7.13
2018-11-07T03:15:25.764Z,7.20
2018-11-07T03:17:53.876Z,7.33
2018-11-07T03:20:21.986Z,7.42
2018-11-07T03:22:50.095Z,7.38
2018-11-07T03:25:18.221Z,7.33
2018-11-07T03:27:46.473Z,7.16
2018-11-07T03:30:14.598Z,7.18
2018-11-07T03:32:42.708Z,7.30
2018-11-07T03:35:16.177Z,7.40
2018-11-07T03:37:44.352Z,7.42
2018-11-07T03:40:12.457Z,7.29
2018-11-07T03:42:40.563Z,7.37
2018-11-07T03:45:09.058Z,7.39
2018-11-07T03:47:37.148Z,7.40
2018-11-07T03:50:05.635Z,7.31
2018-11-07T03:52:33.775Z,7.21
2018-11-07T03:55:01.885Z,7.06
2018-11-07T03:57:30.039Z,7.10
2018-11-07T03:59:58.148Z,7.12
2018-11-07T04:02:26.305Z,7.24
2018-11-07T04:04:54.441Z,7.31
2018-11-07T04:07:22.555Z,7.28
2018-11-07T04:09:50.669Z,7.01
2018-11-07T04:12:18.876Z,6.68
2018-11-07T04:14:46.980Z,6.53
2018-11-07T04:17:15.084Z,6.50
2018-11-07T04:19:43.228Z,6.39
2018-11-07T04:22:11.311Z,6.20
2018-11-07T04:24:39.407Z,6.09
2018-11-07T04:27:07.523Z,6.01
2018-11-07T04:29:35.627Z,5.92
2018-11-07T04:32:10.417Z,6.05
2018-11-07T04:34:38.568Z,6.24
2018-11-07T04:37:06.663Z,6.22
2018-11-07T04:39:34.780Z,6.26
2018-11-07T04:42:02.998Z,6.28
2018-11-07T04:44:31.076Z,6.09
2018-11-07T04:46:59.230Z,5.88
2018-11-07T04:49:27.415Z,5.73
2018-11-07T04:51:55.595Z,5.83
2018-11-07T04:54:23.715Z,5.82
2018-11-07T04:56:51.816Z,5.82
2018-11-07T04:59:19.934Z,5.62
2018-11-07T05:01:48.058Z,5.57
2018-11-07T05:04:16.163Z,5.41
2018-11-07T05:06:44.299Z,5.33
2018-11-07T05:09:12.403Z,5.36
2018-11-07T05:11:40.487Z,5.32
2018-11-07T05:14:08.597Z,5.25
2018-11-07T05:16:36.697Z,5.30
2018-11-07T05:19:04.860Z,5.39
2018-11-07T05:21:33.002Z,5.37
2018-11-07T05:24:01.126Z,5.45
2018-11-07T05:26:29.260Z,5.53
2018-11-07T05:28:57.375Z,5.66
2018-11-07T05:31:25.849Z,5.61
2018-11-07T05:33:54.240Z,5.66
2018-11-07T05:36:22.341Z,5.58
2018-11-07T05:38:50.434Z,5.30
2018-11-07T05:41:18.608Z,5.00
2018-11-07T05:43:47.040Z,4.96
2018-11-07T05:46:15.170Z,4.85
2018-11-07T05:48:43.288Z,4.82
2018-11-07T05:51:11.395Z,4.86
2018-11-07T05:53:39.501Z,4.97
2018-11-07T05:56:07.587Z,4.81
2018-11-07T05:58:35.700Z,4.81
2018-11-07T06:01:03.809Z,4.73
2018-11-07T06:03:31.938Z,4.77
2018-11-07T06:06:00.041Z,4.77
2018-11-07T06:08:28.295Z,4.88
2018-11-07T06:10:56.395Z,5.01
2018-11-07T06:13:24.519Z,5.08
2018-11-07T06:15:52.632Z,5.11
2018-11-07T06:18:20.813Z,4.93
2018-11-07T06:20:48.917Z,4.76
2018-11-07T06:23:17.019Z,4.63
2018-11-07T06:25:45.097Z,4.55
2018-11-07T06:28:13.211Z,4.60
2018-11-07T06:30:41.333Z,4.69
2018-11-07T06:33:09.517Z,4.75
2018-11-07T06:35:37.619Z,4.76
2018-11-07T06:38:05.747Z,4.70
2018-11-07T06:40:33.909Z,4.69
2018-11-07T06:43:02.031Z,4.63
2018-11-07T06:45:30.138Z,4.53
2018-11-07T06:47:58.251Z,4.52
2018-11-07T06:50:26.361Z,4.56
2018-11-07T06:52:54.500Z,4.68
2018-11-07T06:55:22.598Z,4.65
2018-11-07T06:57:50.687Z,4.69
2018-11-07T07:00:18.781Z,4.86
2018-11-07T07:02:47.903Z,4.78
2018-11-07T07:05:16.368Z,4.88
2018-11-07T07:07:44.488Z,4.93
2018-11-07T07:10:14.824Z,4.94
2018-11-07T07:12:43.075Z,4.84
2018-11-07T07:15:14.177Z,4.83
2018-11-07T07:17:42.441Z,4.85
2018-11-07T07:20:14.036Z,4.86
2018-11-07T07:22:42.729Z,4.95
2018-11-07T07:25:11.871Z,4.87
2018-11-07T07:27:40.334Z,4.82
2018-11-07T07:30:11.205Z,4.78
2018-11-07T07:32:39.759Z,4.78
2018-11-07T07:35:07.882Z,4.79
2018-11-07T07:37:35.995Z,4.79
2018-11-07T07:40:04.704Z,5.08
2018-11-07T07:42:32.920Z,5.05
2018-11-07T07:45:01.014Z,5.01
2018-11-07T07:47:29.103Z,5.41
2018-11-07T07:49:57.309Z,5.24
2018-11-07T07:52:25.392Z,5.32
2018-11-07T07:54:53.501Z,5.39
2018-11-07T07:57:21.663Z,5.47
2018-11-07T07:59:49.829Z,5.58
2018-11-07T08:02:18.071Z,5.91
2018-11-07T08:04:46.261Z,6.15
2018-11-07T08:07:14.373Z,6.34
2018-11-07T08:09:42.494Z,6.45
2018-11-07T08:12:10.628Z,6.73
2018-11-07T08:14:38.768Z,6.80
2018-11-07T08:17:06.946Z,6.88
2018-11-07T08:19:35.081Z,6.95
2018-11-07T08:22:03.193Z,6.96
2018-11-07T08:24:31.356Z,7.05
2018-11-07T08:26:59.579Z,7.06
2018-11-07T08:29:27.683Z,7.07
2018-11-07T08:31:55.814Z,7.17
2018-11-07T08:34:23.924Z,7.32
2018-11-07T08:36:52.054Z,7.40
2018-11-07T08:39:20.151Z,7.39
2018-11-07T08:41:48.259Z,7.42
2018-11-07T08:44:16.379Z,7.49
2018-11-07T08:46:44.488Z,7.47
2018-11-07T08:49:12.600Z,7.54
2018-11-07T08:51:40.703Z,7.62
2018-11-07T08:54:08.891Z,7.66
2018-11-07T08:56:37.133Z,7.69
2018-11-07T08:59:05.387Z,7.77
2018-11-07T09:04:01.753Z,7.95
2018-11-07T09:06:29.891Z,8.03
2018-11-07T09:08:57.982Z,8.27
2018-11-07T09:11:26.103Z,8.39
2018-11-07T09:13:54.248Z,8.55
2018-11-07T09:16:22.364Z,8.75
2018-11-07T09:18:50.467Z,8.80
2018-11-07T09:21:18.572Z,8.84
2018-11-07T09:23:46.763Z,8.94
2018-11-07T09:26:14.940Z,9.04
2018-11-07T09:28:43.058Z,9.07
2018-11-07T09:31:11.174Z,9.24
2018-11-07T09:33:39.268Z,9.40
2018-11-07T09:36:07.380Z,9.47
2018-11-07T09:38:35.489Z,9.54
2018-11-07T09:41:03.638Z,9.58
2018-11-07T09:43:31.741Z,9.68
2018-11-07T09:45:59.884Z,9.79
2018-11-07T09:48:27.992Z,9.87
2018-11-07T09:50:56.240Z,9.90
2018-11-07T09:53:24.353Z,9.95
2018-11-07T09:55:52.487Z,10.04
2018-11-07T09:58:20.605Z,10.09
2018-11-07T10:00:48.704Z,10.19
2018-11-07T10:03:16.811Z,10.34
2018-11-07T10:05:44.932Z,10.46
2018-11-07T10:08:13.093Z,10.50
2018-11-07T10:10:41.240Z,10.61
2018-11-07T10:13:09.373Z,10.72
2018-11-07T10:15:37.516Z,10.81
2018-11-07T10:18:05.712Z,10.92
2018-11-07T10:20:33.946Z,11.06
2018-11-07T10:23:01.965Z,11.03
2018-11-07T10:25:30.071Z,11.02
2018-11-07T10:27:58.715Z,11.09
2018-11-07T10:30:26.352Z,11.10
2018-11-07T10:32:54.451Z,11.09
2018-11-07T10:35:22.569Z,11.10
2018-11-07T10:37:50.743Z,11.15
2018-11-07T10:40:20.252Z,11.22
2018-11-07T10:42:48.498Z,11.34
2018-11-07T10:45:16.625Z,11.46
2018-11-07T10:47:45.838Z,11.47
2018-11-07T10:50:14.915Z,11.55
2018-11-07T10:52:43.959Z,11.63
2018-11-07T10:55:12.920Z,11.67
2018-11-07T10:57:41.055Z,11.88
2018-11-07T11:00:17.592Z,11.85
2018-11-07T11:02:45.743Z,11.89
2018-11-07T11:05:14.593Z,11.93
2018-11-07T11:07:42.914Z,12.02
2018-11-07T11:10:12.464Z,11.98
2018-11-07T11:12:40.937Z,12.10
2018-11-07T11:15:09.172Z,12.11
2018-11-07T11:17:37.367Z,12.18
2018-11-07T11:20:07.374Z,12.27
2018-11-07T11:22:35.588Z,12.40
2018-11-07T11:25:03.715Z,12.51
2018-11-07T11:27:31.922Z,12.54
2018-11-07T11:30:00.077Z,12.57
2018-11-07T11:32:28.195Z,12.69
2018-11-07T11:34:56.420Z,12.80
2018-11-07T11:37:24.518Z,12.89
2018-11-07T11:39:52.671Z,13.02
2018-11-07T11:42:20.775Z,13.01
2018-11-07T11:44:48.887Z,13.03
2018-11-07T11:47:17.056Z,13.00
2018-11-07T11:49:45.332Z,13.10
2018-11-07T11:52:13.461Z,13.20
2018-11-07T11:54:41.564Z,13.21
2018-11-07T11:57:09.663Z,13.28
2018-11-07T11:59:38.087Z,13.27
2018-11-07T12:02:05.946Z,13.30
2018-11-07T12:04:34.055Z,13.36
2018-11-07T12:07:02.177Z,13.35
2018-11-07T12:09:30.335Z,13.48
2018-11-07T12:11:58.489Z,13.54
2018-11-07T12:14:26.611Z,13.65
2018-11-07T12:16:54.730Z,13.60
2018-11-07T12:19:22.831Z,13.68
2018-11-07T12:21:51.256Z,13.74
2018-11-07T12:24:19.363Z,13.78
2018-11-07T12:26:47.527Z,13.86
2018-11-07T12:29:15.620Z,13.94
2018-11-07T12:31:43.795Z,13.95
2018-11-07T12:34:11.935Z,13.93
2018-11-07T12:36:40.047Z,14.01
2018-11-07T12:39:08.688Z,14.12
2018-11-07T12:41:36.815Z,14.13
2018-11-07T12:44:05.033Z,14.14
2018-11-07T12:46:33.143Z,14.19
2018-11-07T12:49:01.438Z,14.21
2018-11-07T12:51:29.557Z,14.23
2018-11-07T12:53:57.741Z,14.27
2018-11-07T12:56:25.819Z,14.28
2018-11-07T12:58:53.954Z,14.33
2018-11-07T13:01:22.138Z,14.33
2018-11-07T13:03:50.240Z,14.33
2018-11-07T13:06:18.344Z,14.37
2018-11-07T13:08:46.441Z,14.43
2018-11-07T13:11:14.570Z,14.47
2018-11-07T13:13:42.656Z,14.47
2018-11-07T13:16:10.758Z,14.51
2018-11-07T13:18:38.871Z,14.59
2018-11-07T13:21:06.984Z,14.55
2018-11-07T13:23:35.124Z,14.63
2018-11-07T13:26:03.213Z,14.72
2018-11-07T13:28:31.348Z,14.67
2018-11-07T13:30:59.455Z,14.70
2018-11-07T13:33:27.553Z,14.67
2018-11-07T13:35:55.699Z,14.81
2018-11-07T13:38:24.180Z,14.94
2018-11-07T13:40:51.943Z,14.95
2018-11-07T13:43:20.092Z,14.91
2018-11-07T13:45:48.225Z,14.90
2018-11-07T13:48:16.364Z,14.88
2018-11-07T13:50:44.568Z,14.87
2018-11-07T13:53:12.738Z,15.01
2018-11-07T13:55:40.869Z,15.04
2018-11-07T13:58:08.968Z,15.01
2018-11-07T14:00:37.067Z,15.04
2018-11-07T14:03:05.340Z,15.06
2018-11-07T14:05:33.588Z,15.11
2018-11-07T14:08:01.714Z,15.19
2018-11-07T14:10:29.802Z,15.19
2018-11-07T14:12:57.938Z,15.14
2018-11-07T14:15:26.027Z,15.18
2018-11-07T14:17:54.156Z,15.12
2018-11-07T14:20:22.286Z,15.22
2018-11-07T14:22:50.370Z,15.20
2018-11-07T14:25:18.465Z,15.15
2018-11-07T14:27:46.788Z,15.05
2018-11-07T14:30:16.030Z,15.04
2018-11-07T14:32:51.588Z,14.99
2018-11-07T14:35:19.774Z,14.93
2018-11-07T14:37:47.865Z,14.86
2018-11-07T14:40:16.047Z,14.78
2018-11-07T14:42:44.146Z,14.68
2018-11-07T14:45:12.859Z,14.67
2018-11-07T14:47:41.616Z,14.62
2018-11-07T14:50:10.395Z,14.49
2018-11-07T14:52:38.485Z,14.46
2018-11-07T14:55:06.847Z,14.33
2018-11-07T14:57:35.524Z,14.24
2018-11-07T15:00:03.901Z,14.20
2018-11-07T15:02:35.065Z,14.13
2018-11-07T15:05:03.166Z,14.04
2018-11-07T15:07:31.235Z,13.98
2018-11-07T15:10:00.436Z,13.87
2018-11-07T15:12:28.593Z,13.83
2018-11-07T15:14:56.723Z,13.77
2018-11-07T15:17:24.877Z,13.68
2018-11-07T15:19:52.951Z,13.67
2018-11-07T15:22:21.360Z,13.54
2018-11-07T15:24:49.516Z,13.50
2018-11-07T15:27:17.570Z,13.44
2018-11-07T15:29:45.660Z,13.32
2018-11-07T15:32:13.807Z,13.30
2018-11-07T15:34:41.899Z,13.24
2018-11-07T15:37:09.982Z,13.20
2018-11-07T15:39:38.091Z,13.08
2018-11-07T15:42:06.209Z,12.97
2018-11-07T15:44:34.308Z,12.88
2018-11-07T15:47:02.472Z,12.79
2018-11-07T15:49:30.544Z,12.68
2018-11-07T15:51:58.791Z,12.60
2018-11-07T15:54:26.819Z,12.50
2018-11-07T15:56:54.979Z,12.37
2018-11-07T15:59:23.108Z,12.26
2018-11-07T16:01:51.264Z,12.16
2018-11-07T16:04:19.384Z,12.07
2018-11-07T16:06:47.467Z,11.97
2018-11-07T16:09:15.579Z,11.94
2018-11-07T16:11:43.666Z,11.92
2018-11-07T16:14:11.785Z,11.88
2018-11-07T16:16:39.897Z,11.83
2018-11-07T16:19:08.000Z,11.78
2018-11-07T16:21:36.096Z,11.72
2018-11-07T16:24:11.021Z,11.56
2018-11-07T16:26:39.076Z,11.46
2018-11-07T16:29:07.136Z,11.39
2018-11-07T16:31:35.298Z,11.30
2018-11-07T16:34:03.345Z,11.15
2018-11-07T16:36:31.984Z,11.03
2018-11-07T16:39:00.114Z,11.04
2018-11-07T16:41:28.319Z,10.98
2018-11-07T16:43:56.331Z,11.03
2018-11-07T16:46:24.542Z,10.98
2018-11-07T16:48:52.600Z,10.81
2018-11-07T16:51:20.706Z,10.71
2018-11-07T16:54:25.899Z,10.60
2018-11-07T16:56:54.056Z,10.61
2018-11-07T16:59:22.146Z,10.60
2018-11-07T17:01:50.261Z,10.66
2018-11-07T17:04:18.414Z,10.57
2018-11-07T17:06:46.480Z,10.51
2018-11-07T17:09:14.641Z,10.30
2018-11-07T17:11:42.759Z,10.48
2018-11-07T17:14:10.844Z,10.50
2018-11-07T17:16:38.971Z,10.68
2018-11-07T17:19:07.124Z,10.69
2018-11-07T17:21:35.222Z,10.77
2018-11-07T17:24:03.348Z,10.80
2018-11-07T17:26:32.152Z,10.77
2018-11-07T17:29:00.230Z,10.85
2018-11-07T17:31:28.615Z,10.87
2018-11-07T17:33:56.736Z,10.84
2018-11-07T17:36:24.915Z,10.86
2018-11-07T17:38:53.124Z,10.89
2018-11-07T17:41:21.312Z,10.86
2018-11-07T17:43:49.415Z,10.83
2018-11-07T17:46:17.513Z,10.80
2018-11-07T17:48:46.676Z,10.81
2018-11-07T17:51:14.811Z,10.85
2018-11-07T17:53:42.926Z,10.88
2018-11-07T17:56:11.039Z,10.94
2018-11-07T17:58:39.145Z,10.95
2018-11-07T18:01:07.300Z,10.97
2018-11-07T18:03:35.493Z,10.96
2018-11-07T18:06:03.554Z,11.02
2018-11-07T18:08:31.915Z,10.92
2018-11-07T18:11:00.035Z,10.94
2018-11-07T18:13:28.139Z,11.00
2018-11-07T18:15:56.251Z,11.02
2018-11-07T18:18:24.365Z,11.02
2018-11-07T18:20:52.459Z,11.09
2018-11-07T18:23:20.586Z,11.14
2018-11-07T18:25:48.875Z,11.15
2018-11-07T18:28:16.972Z,11.15
2018-11-07T18:30:45.107Z,11.23
2018-11-07T18:33:13.286Z,11.24
2018-11-07T18:35:41.401Z,11.28
2018-11-07T18:38:09.571Z,11.42
2018-11-07T18:40:37.707Z,11.41
2018-11-07T18:43:05.910Z,11.41
2018-11-07T18:45:33.957Z,11.33
2018-11-07T18:48:02.061Z,11.17
2018-11-07T18:50:30.178Z,11.15
2018-11-07T18:52:58.303Z,11.15
2018-11-07T18:55:26.427Z,11.21
2018-11-07T18:57:54.583Z,11.19
2018-11-07T19:00:22.665Z,11.22
2018-11-07T19:02:50.982Z,11.33
2018-11-07T19:05:19.408Z,11.38
2018-11-07T19:07:47.509Z,11.34
2018-11-07T19:10:17.082Z,11.39
2018-11-07T19:12:45.965Z,11.39
2018-11-07T19:15:14.971Z,11.39
2018-11-07T19:17:44.187Z,11.41
2018-11-07T19:20:13.521Z,11.45
2018-11-07T19:22:41.795Z,11.39
2018-11-07T19:25:12.080Z,11.42
2018-11-07T19:27:40.189Z,11.48
2018-11-07T19:30:10.469Z,11.46
2018-11-07T19:32:38.652Z,11.48
2018-11-07T19:35:08.485Z,11.54
2018-11-07T19:37:36.661Z,11.54
2018-11-07T19:40:05.919Z,11.58
2018-11-07T19:42:34.175Z,11.67
2018-11-07T19:45:05.099Z,11.63
2018-11-07T19:47:34.275Z,11.63
2018-11-07T19:50:02.365Z,11.63
2018-11-07T19:52:30.475Z,11.63
2018-11-07T19:54:58.639Z,11.68
2018-11-07T19:57:26.837Z,11.69
2018-11-07T19:59:54.986Z,11.69
2018-11-07T20:02:23.134Z,11.69
2018-11-07T20:04:51.292Z,11.66
2018-11-07T20:07:19.382Z,11.63
2018-11-07T20:09:47.623Z,11.51
2018-11-07T20:12:15.732Z,11.42
2018-11-07T20:14:43.857Z,11.52
2018-11-07T20:17:12.074Z,11.55
2018-11-07T20:19:40.097Z,11.53
2018-11-07T20:22:08.223Z,11.56
2018-11-07T20:24:36.823Z,11.58
2018-11-07T20:27:05.790Z,11.66
2018-11-07T20:29:33.910Z,11.67
2018-11-07T20:32:02.092Z,11.68
2018-11-07T20:34:30.275Z,11.67
2018-11-07T20:36:58.448Z,11.68
2018-11-07T20:39:26.578Z,11.72
2018-11-07T20:41:54.735Z,11.69
2018-11-07T20:44:22.872Z,11.66
2018-11-07T20:46:51.040Z,11.56
2018-11-07T20:49:19.217Z,11.47
2018-11-07T20:51:47.443Z,11.51
2018-11-07T20:54:15.580Z,11.47
2018-11-07T20:56:43.724Z,11.53
2018-11-07T20:59:11.851Z,11.56
2018-11-07T21:01:40.104Z,11.56
2018-11-07T21:04:08.172Z,11.55
2018-11-07T21:06:36.320Z,11.50
2018-11-07T21:09:06.536Z,11.45
2018-11-07T21:11:34.641Z,11.50
2018-11-07T21:14:02.758Z,11.52
2018-11-07T21:16:30.911Z,11.52
2018-11-07T21:18:59.005Z,11.58
2018-11-07T21:21:27.216Z,11.63
2018-11-07T21:23:55.432Z,11.65
2018-11-07T21:26:23.965Z,11.63
2018-11-07T21:28:52.691Z,11.65
2018-11-07T21:31:20.795Z,11.52
2018-11-07T21:33:48.933Z,11.46
2018-11-07T21:36:17.066Z,11.45
2018-11-07T21:38:45.189Z,11.56
2018-11-07T21:41:13.332Z,11.59
2018-11-07T21:43:42.052Z,11.65
2018-11-07T21:46:10.177Z,11.72
2018-11-07T21:48:38.628Z,11.67
2018-11-07T21:51:06.742Z,11.59
2018-11-07T21:53:34.907Z,11.62
2018-11-07T21:56:03.024Z,11.66
2018-11-07T21:58:31.127Z,11.63
2018-11-07T22:00:59.256Z,11.66
2018-11-07T22:03:27.385Z,11.65
2018-11-07T22:05:55.483Z,11.66
2018-11-07T22:08:23.586Z,11.70
2018-11-07T22:10:51.691Z,11.65
2018-11-07T22:13:20.073Z,11.67
2018-11-07T22:15:48.132Z,11.74
2018-11-07T22:18:16.277Z,11.69
2018-11-07T22:20:44.753Z,11.65
2018-11-07T22:23:13.096Z,11.72
2018-11-07T22:25:41.197Z,11.73
2018-11-07T22:28:09.307Z,11.73
2018-11-07T22:30:37.422Z,11.72
2018-11-07T22:33:05.689Z,11.71
2018-11-07T22:35:33.884Z,11.71
2018-11-07T22:38:02.044Z,11.76
2018-11-07T22:40:31.611Z,11.71
2018-11-07T22:43:02.354Z,11.76
2018-11-07T22:45:30.536Z,11.77
2018-11-07T22:47:58.644Z,11.78
2018-11-07T22:50:26.953Z,11.81
2018-11-07T22:52:55.074Z,11.81
2018-11-07T22:55:23.221Z,11.75
2018-11-07T22:57:51.380Z,11.71
2018-11-07T23:00:24.889Z,11.72
2018-11-07T23:02:55.236Z,11.73
2018-11-07T23:05:23.428Z,11.73
2018-11-07T23:07:51.986Z,11.72
2018-11-07T23:10:20.130Z,11.70
2018-11-07T23:12:48.716Z,11.68
2018-11-07T23:15:22.254Z,11.65
2018-11-07T23:17:50.829Z,11.66
2018-11-07T23:20:18.998Z,11.67
2018-11-07T23:22:47.207Z,11.60
2018-11-07T23:25:15.431Z,11.59
2018-11-07T23:27:43.624Z,11.59
2018-11-07T23:30:12.733Z,11.61
2018-11-07T23:32:40.879Z,11.55
2018-11-07T23:35:09.439Z,11.52
2018-11-07T23:37:37.634Z,11.54
2018-11-07T23:40:06.056Z,11.61
2018-11-07T23:42:34.460Z,11.60
2018-11-07T23:45:02.677Z,11.65
2018-11-07T23:47:30.927Z,11.63
2018-11-07T23:49:59.060Z,11.63
2018-11-07T23:52:32.606Z,11.63
2018-11-07T23:55:01.031Z,11.63
2018-11-07T23:57:29.227Z,11.65
2018-11-07T23:59:57.303Z,11.64
